createdAt,value
2019-01-31T00:01:35.686Z,99.60
2019-01-31T00:04:31.527Z,99.61
2019-01-31T00:07:31.848Z,99.62
2019-01-31T00:10:26.858Z,99.68
2019-01-31T00:13:17.582Z,99.76
2019-01-31T00:16:12.389Z,99.80
2019-01-31T00:18:51.142Z,99.87
2019-01-31T00:22:02.664Z,99.98
2019-01-31T00:25:05.128Z,99.98
2019-01-31T00:28:02.946Z,99.93
2019-01-31T00:31:01.846Z,99.87
2019-01-31T00:34:06.117Z,99.88
2019-01-31T00:37:03.289Z,99.86
2019-01-31T00:40:02.906Z,99.72
2019-01-31T00:43:32.702Z,99.68
2019-01-31T00:46:35.452Z,99.60
2019-01-31T00:49:23.142Z,99.52
2019-01-31T00:52:31.950Z,99.43
2019-01-31T00:55:31.012Z,99.38
2019-01-31T00:58:18.845Z,99.41
2019-01-31T01:01:19.339Z,99.43
2019-01-31T01:04:31.405Z,99.41
2019-01-31T01:07:41.510Z,99.44
2019-01-31T01:10:32.479Z,99.34
2019-01-31T01:13:35.984Z,99.32
2019-01-31T01:16:51.515Z,99.32
2019-01-31T01:19:48.924Z,99.29
2019-01-31T01:22:44.517Z,99.28
2019-01-31T01:25:52.011Z,99.26
2019-01-31T01:28:53.255Z,99.26
2019-01-31T01:32:06.532Z,99.19
2019-01-31T01:35:06.237Z,99.11
2019-01-31T01:38:12.010Z,98.96
2019-01-31T01:41:18.745Z,98.76
2019-01-31T01:44:17.924Z,98.49
2019-01-31T01:47:12.588Z,98.41
2019-01-31T01:50:26.808Z,98.34
2019-01-31T01:53:35.914Z,98.35
2019-01-31T01:56:29.303Z,98.32
2019-01-31T01:59:13.979Z,98.38
2019-01-31T02:02:22.944Z,98.42
2019-01-31T02:05:34.288Z,98.32
2019-01-31T02:08:32.046Z,98.22
2019-01-31T02:11:23.367Z,98.15
2019-01-31T02:14:22.127Z,98.21
2019-01-31T02:17:20.314Z,98.32
2019-01-31T02:20:46.442Z,98.38
2019-01-31T02:24:01.621Z,98.42
2019-01-31T02:27:04.771Z,98.45
2019-01-31T02:30:18.193Z,98.41
2019-01-31T02:33:14.437Z,98.33
2019-01-31T02:36:24.139Z,98.36
2019-01-31T02:39:25.930Z,98.41
2019-01-31T02:42:34.696Z,98.42
2019-01-31T02:45:56.746Z,98.43
2019-01-31T02:49:17.505Z,98.36
2019-01-31T02:52:06.485Z,98.27
2019-01-31T02:55:18.823Z,98.12
2019-01-31T02:58:24.666Z,97.99
2019-01-31T03:01:43.604Z,97.66
2019-01-31T03:04:27.817Z,97.41
2019-01-31T03:07:51.086Z,97.19
2019-01-31T03:10:45.468Z,97.05
2019-01-31T03:13:31.250Z,96.91
2019-01-31T03:16:39.906Z,96.78
2019-01-31T03:19:28.231Z,96.68
2019-01-31T03:22:36.738Z,96.56
2019-01-31T03:25:29.927Z,96.49
2019-01-31T03:28:23.667Z,96.35
2019-01-31T03:31:24.483Z,96.28
2019-01-31T03:34:08.084Z,96.30
2019-01-31T03:37:46.976Z,96.33
2019-01-31T03:40:53.717Z,96.03
2019-01-31T03:44:05.671Z,95.88
2019-01-31T03:47:01.056Z,95.94
2019-01-31T03:50:15.004Z,96.17
2019-01-31T03:53:34.760Z,96.11
2019-01-31T03:56:31.570Z,96.32
2019-01-31T03:59:11.007Z,96.67
2019-01-31T04:02:25.783Z,96.93
2019-01-31T04:05:27.795Z,97.13
2019-01-31T04:07:59.613Z,97.36
2019-01-31T04:10:30.417Z,97.67
2019-01-31T04:13:01.511Z,98.03
2019-01-31T04:15:33.091Z,98.45
2019-01-31T04:18:04.977Z,98.75
2019-01-31T04:20:35.328Z,98.95
2019-01-31T04:23:06.092Z,99.16
2019-01-31T04:25:36.630Z,99.30
2019-01-31T04:28:07.066Z,99.35
2019-01-31T04:30:38.600Z,99.38
2019-01-31T04:33:09.577Z,99.48
2019-01-31T04:35:40.812Z,99.64
2019-01-31T04:38:11.625Z,99.76
2019-01-31T04:40:42.761Z,99.87
2019-01-31T04:43:13.641Z,99.97
2019-01-31T04:45:45.604Z,100.00
2019-01-31T04:48:15.989Z,100.00
2019-01-31T04:50:46.671Z,100.00
2019-01-31T04:53:17.565Z,100.00
2019-01-31T04:55:48.642Z,100.00
2019-01-31T04:58:19.637Z,100.00
2019-01-31T05:00:50.577Z,100.00
2019-01-31T05:03:20.956Z,100.00
2019-01-31T05:05:52.702Z,100.00
2019-01-31T05:08:23.591Z,100.00
2019-01-31T05:10:54.583Z,100.00
2019-01-31T05:13:25.517Z,100.00
2019-01-31T05:15:56.574Z,100.00
2019-01-31T05:18:27.542Z,100.00
2019-01-31T05:20:58.395Z,100.00
2019-01-31T05:23:29.292Z,100.00
2019-01-31T05:25:59.773Z,100.00
2019-01-31T05:28:30.868Z,100.00
2019-01-31T05:31:03.937Z,100.00
2019-01-31T05:33:35.135Z,100.00
2019-01-31T05:36:05.826Z,100.00
2019-01-31T05:38:36.935Z,100.00
2019-01-31T05:41:07.879Z,100.00
2019-01-31T05:43:38.788Z,100.00
2019-01-31T05:46:10.029Z,100.00
2019-01-31T05:48:41.090Z,100.00
2019-01-31T05:51:11.894Z,100.00
2019-01-31T05:53:42.893Z,100.00
2019-01-31T05:56:13.913Z,100.00
2019-01-31T05:58:44.385Z,100.00
2019-01-31T06:01:15.906Z,100.00
2019-01-31T06:03:46.819Z,100.00
2019-01-31T06:06:17.880Z,100.00
2019-01-31T06:08:48.735Z,100.00
2019-01-31T06:11:19.770Z,100.00
2019-01-31T06:13:50.672Z,100.00
2019-01-31T06:16:21.151Z,100.00
2019-01-31T06:18:52.415Z,100.00
2019-01-31T06:21:23.346Z,100.00
2019-01-31T06:23:54.364Z,100.00
2019-01-31T06:26:25.258Z,100.00
2019-01-31T06:28:56.313Z,100.00
2019-01-31T06:31:26.843Z,100.00
2019-01-31T06:33:57.851Z,100.00
2019-01-31T06:36:28.610Z,100.00
2019-01-31T06:38:59.620Z,100.00
2019-01-31T06:41:30.248Z,100.00
2019-01-31T06:44:01.193Z,100.00
2019-01-31T06:46:31.591Z,100.00
2019-01-31T06:49:03.261Z,100.00
2019-01-31T06:51:34.485Z,100.00
2019-01-31T06:54:07.602Z,100.00
2019-01-31T06:56:39.175Z,100.00
2019-01-31T06:59:10.262Z,100.00
2019-01-31T07:01:41.314Z,100.00
2019-01-31T07:04:12.244Z,100.00
2019-01-31T07:06:43.297Z,100.00
2019-01-31T07:09:14.222Z,100.00
2019-01-31T07:11:47.236Z,100.00
2019-01-31T07:14:18.386Z,100.00
2019-01-31T07:16:49.321Z,100.00
2019-01-31T07:19:20.267Z,100.00
2019-01-31T07:21:53.273Z,100.00
2019-01-31T07:24:24.373Z,100.00
2019-01-31T07:26:56.397Z,100.00
2019-01-31T07:29:28.313Z,100.00
2019-01-31T07:32:03.620Z,100.00
2019-01-31T07:34:33.470Z,100.00
2019-01-31T07:37:06.303Z,100.00
2019-01-31T07:39:37.220Z,100.00
2019-01-31T07:42:08.073Z,100.00
2019-01-31T07:44:38.515Z,100.00
2019-01-31T07:47:09.400Z,100.00
2019-01-31T07:49:40.531Z,100.00
2019-01-31T07:52:11.713Z,100.00
2019-01-31T07:54:42.463Z,100.00
2019-01-31T07:57:13.486Z,100.00
2019-01-31T07:59:44.383Z,100.00
2019-01-31T08:02:15.268Z,100.00
2019-01-31T08:04:46.194Z,100.00
2019-01-31T08:07:16.644Z,99.87
2019-01-31T08:09:47.564Z,99.67
2019-01-31T08:12:18.831Z,99.53
2019-01-31T08:14:49.613Z,99.38
2019-01-31T08:17:20.569Z,99.33
2019-01-31T08:19:51.718Z,98.97
2019-01-31T08:22:22.084Z,98.50
2019-01-31T08:24:53.673Z,98.10
2019-01-31T08:27:24.517Z,97.71
2019-01-31T08:29:55.359Z,97.44
2019-01-31T08:32:26.250Z,97.15
2019-01-31T08:34:56.730Z,96.81
2019-01-31T08:37:27.667Z,96.57
2019-01-31T08:39:58.900Z,96.15
2019-01-31T08:42:29.903Z,95.55
2019-01-31T08:45:00.730Z,94.98
2019-01-31T08:47:31.788Z,94.35
2019-01-31T08:50:02.678Z,94.33
2019-01-31T08:52:33.653Z,94.28
2019-01-31T08:55:05.061Z,93.89
2019-01-31T08:57:35.923Z,93.54
2019-01-31T09:00:08.799Z,93.49
2019-01-31T09:02:40.855Z,92.90
2019-01-31T09:05:11.801Z,92.32
2019-01-31T09:07:42.949Z,92.04
2019-01-31T09:10:16.451Z,92.07
2019-01-31T09:12:47.907Z,92.19
2019-01-31T09:15:22.766Z,91.18
2019-01-31T09:17:54.988Z,90.94
2019-01-31T09:20:37.293Z,90.84
2019-01-31T09:23:26.546Z,89.97
2019-01-31T09:26:33.931Z,89.30
2019-01-31T09:29:54.200Z,89.48
2019-01-31T09:33:09.003Z,89.57
2019-01-31T09:36:05.480Z,89.28
2019-01-31T09:39:20.368Z,87.78
2019-01-31T09:42:26.590Z,87.74
2019-01-31T09:45:21.620Z,87.40
2019-01-31T09:48:08.103Z,86.79
2019-01-31T09:51:19.906Z,86.61
2019-01-31T09:54:11.009Z,85.42
2019-01-31T09:57:23.929Z,84.00
2019-01-31T10:00:27.981Z,83.87
2019-01-31T10:03:51.262Z,83.00
2019-01-31T10:06:43.367Z,82.02
2019-01-31T10:09:55.320Z,81.37
2019-01-31T10:13:22.686Z,80.22
2019-01-31T10:16:23.029Z,79.94
2019-01-31T10:19:47.868Z,80.06
2019-01-31T10:23:09.963Z,80.91
2019-01-31T10:26:05.040Z,81.85
2019-01-31T10:29:13.001Z,82.09
2019-01-31T10:32:13.912Z,81.76
2019-01-31T10:35:29.828Z,80.72
2019-01-31T10:38:25.033Z,80.19
2019-01-31T10:41:39.248Z,79.13
2019-01-31T10:45:05.212Z,77.85
2019-01-31T10:48:27.521Z,77.74
2019-01-31T10:51:34.772Z,78.39
2019-01-31T10:54:16.879Z,78.90
2019-01-31T10:57:30.068Z,79.33
2019-01-31T11:00:30.251Z,79.16
2019-01-31T11:03:32.152Z,78.72
2019-01-31T11:06:41.391Z,78.96
2019-01-31T11:10:22.183Z,79.83
2019-01-31T11:13:33.547Z,81.12
2019-01-31T11:16:28.670Z,81.87
2019-01-31T11:19:52.212Z,81.69
2019-01-31T11:23:01.263Z,82.23
2019-01-31T11:26:13.878Z,82.16
2019-01-31T11:29:19.035Z,82.43
2019-01-31T11:32:30.307Z,83.02
2019-01-31T11:35:35.229Z,83.27
2019-01-31T11:38:44.112Z,83.60
2019-01-31T11:42:10.756Z,83.91
2019-01-31T11:45:25.005Z,83.69
2019-01-31T11:48:34.913Z,83.34
2019-01-31T11:51:38.902Z,82.88
2019-01-31T11:54:55.414Z,82.47
2019-01-31T11:57:48.291Z,82.47
2019-01-31T12:00:23.820Z,83.31
2019-01-31T12:02:55.845Z,84.24
2019-01-31T12:05:27.651Z,84.80
2019-01-31T12:08:00.466Z,85.22
2019-01-31T12:10:31.402Z,85.54
2019-01-31T12:13:05.085Z,85.91
2019-01-31T12:15:36.172Z,85.79
2019-01-31T12:18:07.198Z,85.63
2019-01-31T12:20:37.738Z,85.36
2019-01-31T12:23:08.586Z,84.66
2019-01-31T12:25:39.722Z,83.70
2019-01-31T12:28:10.672Z,83.21
2019-01-31T12:30:41.784Z,83.58
2019-01-31T12:33:12.737Z,83.87
2019-01-31T12:35:43.591Z,83.75
2019-01-31T12:38:14.650Z,83.86
2019-01-31T12:40:45.788Z,83.42
2019-01-31T12:43:18.319Z,82.98
2019-01-31T12:45:50.882Z,82.50
2019-01-31T12:48:21.372Z,82.43
2019-01-31T12:50:52.805Z,82.31
2019-01-31T12:53:24.789Z,81.82
2019-01-31T12:55:57.773Z,82.47
2019-01-31T12:58:33.612Z,83.24
2019-01-31T13:01:03.489Z,83.89
2019-01-31T13:03:33.895Z,84.39
2019-01-31T13:06:04.976Z,85.09
2019-01-31T13:08:35.707Z,85.43
2019-01-31T13:11:07.385Z,85.60
2019-01-31T13:13:45.975Z,85.01
2019-01-31T13:16:10.995Z,84.75
2019-01-31T13:18:42.984Z,84.54
2019-01-31T13:21:14.147Z,84.12
2019-01-31T13:23:45.194Z,83.54
2019-01-31T13:26:15.967Z,82.65
2019-01-31T13:28:46.382Z,82.42
2019-01-31T13:31:18.087Z,82.05
2019-01-31T13:33:49.010Z,82.15
2019-01-31T13:36:19.996Z,82.69
2019-01-31T13:38:52.192Z,83.00
2019-01-31T13:41:24.362Z,83.51
2019-01-31T13:43:57.604Z,84.44
2019-01-31T13:46:29.050Z,85.08
2019-01-31T13:49:00.080Z,85.86
2019-01-31T13:51:31.028Z,86.23
2019-01-31T13:54:02.089Z,86.26
2019-01-31T13:56:44.906Z,86.58
2019-01-31T13:59:06.983Z,87.01
2019-01-31T14:01:38.149Z,87.43
2019-01-31T14:04:09.120Z,87.67
2019-01-31T14:06:41.174Z,87.52
2019-01-31T14:09:14.142Z,87.53
2019-01-31T14:11:45.089Z,87.39
2019-01-31T14:14:16.071Z,87.40
2019-01-31T14:16:48.120Z,87.45
2019-01-31T14:19:21.183Z,87.46
2019-01-31T14:21:52.175Z,87.09
2019-01-31T14:24:22.600Z,86.59
2019-01-31T14:26:54.104Z,86.77
2019-01-31T14:29:25.410Z,87.31
2019-01-31T14:31:58.197Z,87.44
2019-01-31T14:34:29.831Z,87.92
2019-01-31T14:37:00.224Z,88.33
2019-01-31T14:39:32.139Z,89.01
2019-01-31T14:42:02.652Z,89.55
2019-01-31T14:44:33.748Z,89.92
2019-01-31T14:47:04.163Z,90.08
2019-01-31T14:49:35.759Z,89.98
2019-01-31T14:52:06.516Z,90.22
2019-01-31T14:54:37.296Z,90.37
2019-01-31T14:57:08.505Z,90.34
2019-01-31T14:59:39.558Z,90.57
2019-01-31T15:02:10.482Z,91.04
2019-01-31T15:04:41.700Z,91.53
2019-01-31T15:07:12.489Z,91.45
2019-01-31T15:09:43.405Z,91.60
2019-01-31T15:12:14.097Z,92.05
2019-01-31T15:14:44.515Z,92.54
2019-01-31T15:17:15.490Z,92.51
2019-01-31T15:19:46.631Z,92.25
2019-01-31T15:22:17.819Z,92.49
2019-01-31T15:24:48.638Z,92.64
2019-01-31T15:27:19.439Z,92.76
2019-01-31T15:29:50.424Z,92.94
2019-01-31T15:32:21.427Z,93.04
2019-01-31T15:34:52.186Z,93.19
2019-01-31T15:37:22.650Z,93.43
2019-01-31T15:39:53.566Z,93.31
2019-01-31T15:42:25.185Z,93.13
2019-01-31T15:44:56.519Z,93.04
2019-01-31T15:47:27.077Z,93.03
2019-01-31T15:49:57.602Z,92.97
2019-01-31T15:52:28.586Z,92.66
2019-01-31T15:54:59.585Z,92.93
2019-01-31T15:57:30.738Z,93.02
2019-01-31T16:00:01.677Z,93.00
2019-01-31T16:02:32.722Z,92.90
2019-01-31T16:05:03.643Z,93.20
2019-01-31T16:07:34.600Z,93.33
2019-01-31T16:10:05.738Z,93.57
2019-01-31T16:12:36.537Z,93.82
2019-01-31T16:15:08.232Z,93.83
2019-01-31T16:17:38.627Z,93.91
2019-01-31T16:20:10.607Z,94.05
2019-01-31T16:22:43.087Z,93.79
2019-01-31T16:25:13.703Z,93.67
2019-01-31T16:27:44.618Z,93.94
2019-01-31T16:30:16.085Z,94.04
2019-01-31T16:32:46.833Z,94.18
2019-01-31T16:35:17.833Z,94.33
2019-01-31T16:37:49.024Z,94.41
2019-01-31T16:40:19.936Z,94.54
2019-01-31T16:42:50.873Z,94.88
2019-01-31T16:45:21.728Z,95.00
2019-01-31T16:47:54.786Z,95.05
2019-01-31T16:50:27.770Z,95.12
2019-01-31T16:52:59.824Z,95.25
2019-01-31T16:55:30.917Z,95.54
2019-01-31T16:58:01.927Z,95.51
2019-01-31T17:00:33.999Z,95.68
2019-01-31T17:03:05.259Z,95.71
2019-01-31T17:05:38.011Z,95.80
2019-01-31T17:08:09.057Z,95.90
2019-01-31T17:10:39.834Z,95.98
2019-01-31T17:13:10.959Z,96.18
2019-01-31T17:15:44.017Z,96.26
2019-01-31T17:18:14.961Z,96.13
2019-01-31T17:20:46.817Z,96.03
2019-01-31T17:23:17.230Z,96.14
2019-01-31T17:25:48.033Z,96.19
2019-01-31T17:28:19.051Z,96.17
2019-01-31T17:30:49.978Z,95.77
2019-01-31T17:33:20.894Z,94.98
2019-01-31T17:35:51.847Z,94.59
2019-01-31T17:38:22.292Z,94.11
2019-01-31T17:40:53.791Z,93.75
2019-01-31T17:43:24.679Z,93.47
2019-01-31T17:45:55.809Z,93.33
2019-01-31T17:48:26.681Z,93.38
2019-01-31T17:50:57.609Z,93.56
2019-01-31T17:53:28.046Z,93.40
2019-01-31T17:55:59.096Z,93.21
2019-01-31T17:58:30.517Z,93.04
2019-01-31T18:01:01.203Z,92.46
2019-01-31T18:03:32.585Z,91.93
2019-01-31T18:06:03.248Z,91.61
2019-01-31T18:08:34.240Z,91.54
2019-01-31T18:11:05.245Z,91.73
2019-01-31T18:13:36.297Z,91.77
2019-01-31T18:16:07.178Z,92.13
2019-01-31T18:18:38.324Z,92.06
2019-01-31T18:21:09.243Z,92.18
2019-01-31T18:23:40.155Z,92.45
2019-01-31T18:26:11.255Z,92.54
2019-01-31T18:28:42.196Z,92.63
2019-01-31T18:31:12.935Z,92.57
2019-01-31T18:33:43.472Z,92.95
2019-01-31T18:36:14.922Z,93.09
2019-01-31T18:38:45.398Z,93.46
2019-01-31T18:41:16.451Z,93.79
2019-01-31T18:43:47.203Z,93.88
2019-01-31T18:46:18.415Z,94.00
2019-01-31T18:48:49.908Z,94.11
2019-01-31T18:51:20.455Z,94.46
2019-01-31T18:53:53.743Z,94.67
2019-01-31T18:56:25.560Z,94.72
2019-01-31T18:58:56.737Z,94.85
2019-01-31T19:01:27.541Z,94.90
2019-01-31T19:03:58.572Z,94.95
2019-01-31T19:06:29.411Z,95.25
2019-01-31T19:09:01.009Z,94.97
2019-01-31T19:11:31.571Z,94.75
2019-01-31T19:14:02.455Z,94.66
2019-01-31T19:16:33.595Z,94.87
2019-01-31T19:19:04.740Z,95.20
2019-01-31T19:21:35.560Z,95.50
2019-01-31T19:24:08.657Z,95.65
2019-01-31T19:26:39.554Z,95.64
2019-01-31T19:29:10.954Z,95.63
2019-01-31T19:31:41.550Z,95.55
2019-01-31T19:34:13.693Z,95.05
2019-01-31T19:36:44.984Z,94.93
2019-01-31T19:39:18.909Z,94.70
2019-01-31T19:41:49.566Z,94.66
2019-01-31T19:44:21.702Z,94.50
2019-01-31T19:46:53.546Z,94.39
2019-01-31T19:49:25.752Z,94.55
2019-01-31T19:51:58.775Z,94.65
2019-01-31T19:54:30.157Z,94.73
2019-01-31T19:57:01.040Z,94.89
2019-01-31T19:59:31.760Z,94.84
2019-01-31T20:02:03.290Z,94.92
2019-01-31T20:04:34.826Z,94.94
2019-01-31T20:07:06.425Z,95.01
2019-01-31T20:09:38.723Z,94.97
2019-01-31T20:12:09.879Z,95.21
2019-01-31T20:14:40.743Z,95.67
2019-01-31T20:17:11.751Z,95.86
2019-01-31T20:19:42.885Z,95.67
2019-01-31T20:22:13.774Z,95.75
2019-01-31T20:24:44.916Z,95.94
2019-01-31T20:27:15.801Z,95.97
2019-01-31T20:29:46.989Z,96.34
2019-01-31T20:32:17.858Z,96.72
2019-01-31T20:34:48.823Z,97.07
2019-01-31T20:37:21.762Z,97.23
2019-01-31T20:39:53.997Z,97.45
2019-01-31T20:42:25.878Z,97.77
2019-01-31T20:44:57.882Z,97.96
2019-01-31T20:47:30.797Z,97.85
2019-01-31T20:50:04.067Z,97.96
2019-01-31T20:52:34.924Z,98.10
2019-01-31T20:55:06.986Z,98.20
2019-01-31T20:57:39.247Z,98.25
2019-01-31T21:00:14.857Z,98.35
2019-01-31T21:02:48.101Z,98.48
2019-01-31T21:05:21.226Z,98.54
2019-01-31T21:07:52.015Z,98.45
2019-01-31T21:10:22.407Z,98.54
2019-01-31T21:12:53.646Z,98.57
2019-01-31T21:15:26.131Z,98.48
2019-01-31T21:17:59.166Z,98.60
2019-01-31T21:20:32.091Z,99.02
2019-01-31T21:23:04.565Z,99.39
2019-01-31T21:25:35.151Z,99.72
2019-01-31T21:28:06.689Z,99.94
2019-01-31T21:30:41.554Z,100.00
2019-01-31T21:33:14.133Z,100.00
2019-01-31T21:35:45.128Z,100.00
2019-01-31T21:38:16.232Z,100.00
2019-01-31T21:40:47.207Z,100.00
2019-01-31T21:43:18.194Z,100.00
2019-01-31T21:45:51.236Z,100.00
2019-01-31T21:48:22.292Z,100.00
2019-01-31T21:50:53.097Z,100.00
2019-01-31T21:53:25.179Z,100.00
2019-01-31T21:55:59.904Z,100.00
2019-01-31T21:58:30.670Z,100.00
2019-01-31T22:01:03.279Z,100.00
2019-01-31T22:03:34.149Z,100.00
2019-01-31T22:06:05.418Z,100.00
2019-01-31T22:08:36.612Z,100.00
2019-01-31T22:11:07.382Z,100.00
2019-01-31T22:13:38.210Z,100.00
2019-01-31T22:16:09.723Z,100.00
2019-01-31T22:18:40.385Z,100.00
2019-01-31T22:21:11.325Z,100.00
2019-01-31T22:23:42.257Z,100.00
2019-01-31T22:26:13.432Z,100.00
2019-01-31T22:28:44.451Z,100.00
2019-01-31T22:31:15.402Z,100.00
2019-01-31T22:33:46.395Z,100.00
2019-01-31T22:36:17.855Z,100.00
2019-01-31T22:38:48.451Z,100.00
2019-01-31T22:41:19.434Z,100.00
2019-01-31T22:43:50.452Z,100.00
2019-01-31T22:46:21.508Z,100.00
2019-01-31T22:48:52.567Z,100.00
2019-01-31T22:51:23.042Z,100.00
2019-01-31T22:53:54.437Z,100.00
2019-01-31T22:56:25.422Z,100.00
2019-01-31T22:58:56.359Z,100.00
2019-01-31T23:01:45.202Z,100.00
2019-01-31T23:04:16.629Z,100.00
2019-01-31T23:06:47.573Z,100.00
2019-01-31T23:09:18.515Z,100.00
2019-01-31T23:11:49.690Z,100.00
2019-01-31T23:14:20.718Z,100.00
2019-01-31T23:16:51.566Z,100.00
2019-01-31T23:19:22.325Z,100.00
2019-01-31T23:21:53.527Z,100.00
2019-01-31T23:24:26.673Z,100.00
2019-01-31T23:26:57.557Z,100.00
2019-01-31T23:29:28.597Z,100.00
2019-01-31T23:31:59.544Z,100.00
2019-01-31T23:34:31.406Z,100.00
2019-01-31T23:37:02.721Z,100.00
2019-01-31T23:39:33.556Z,100.00
2019-01-31T23:42:05.846Z,100.00
2019-01-31T23:44:37.694Z,100.00
2019-01-31T23:47:10.191Z,100.00
2019-01-31T23:49:42.776Z,100.00
2019-01-31T23:52:14.612Z,100.00
2019-01-31T23:54:47.584Z,100.00
2019-01-31T23:57:18.633Z,100.00
2019-01-31T23:59:49.767Z,100.00
